createdAt,value
2018-07-15T00:00:21.641Z,73.20
2018-07-15T00:04:24.821Z,74.10
2018-07-15T00:08:28.053Z,76.30
2018-07-15T00:12:31.276Z,77.70
2018-07-15T00:16:34.501Z,78.80
2018-07-15T00:20:38.045Z,79.30
2018-07-15T00:24:41.286Z,79.40
2018-07-15T00:32:47.485Z,85.20
2018-07-15T00:36:50.737Z,86.50
2018-07-15T00:40:53.968Z,87.50
2018-07-15T00:44:57.212Z,88.00
2018-07-15T00:53:03.431Z,88.70
2018-07-15T00:57:06.733Z,90.00
2018-07-15T01:01:09.969Z,90.10
2018-07-15T01:05:13.185Z,90.40
2018-07-15T01:09:16.423Z,90.30
2018-07-15T01:17:22.670Z,90.20
2018-07-15T01:21:25.985Z,90.40
2018-07-15T01:25:29.205Z,90.60
2018-07-15T01:29:32.444Z,90.40
2018-07-15T01:37:38.629Z,90.30
2018-07-15T01:41:41.902Z,90.50
2018-07-15T01:45:45.116Z,90.60
2018-07-15T01:49:48.350Z,90.70
2018-07-15T01:57:54.528Z,91.10
2018-07-15T02:01:57.767Z,91.40
2018-07-15T02:06:00.999Z,92.30
2018-07-15T02:10:04.266Z,92.90
2018-07-15T02:14:07.506Z,93.00
2018-07-15T02:18:10.951Z,93.10
2018-07-15T02:22:14.174Z,93.20
2018-07-15T02:26:17.422Z,93.40
2018-07-15T02:30:20.642Z,93.40
2018-07-15T02:34:23.877Z,93.80
2018-07-15T02:38:27.119Z,94.30
2018-07-15T02:42:30.381Z,94.30
2018-07-15T02:46:33.621Z,94.60
2018-07-15T02:50:36.869Z,94.60
2018-07-15T02:54:40.178Z,94.70
2018-07-15T02:58:43.397Z,94.70
2018-07-15T03:02:46.630Z,95.10
2018-07-15T03:10:52.872Z,94.90
2018-07-15T03:14:56.405Z,95.30
2018-07-15T03:18:59.654Z,95.70
2018-07-15T03:27:05.857Z,96.10
2018-07-15T03:35:12.806Z,96.30
2018-07-15T03:39:16.026Z,96.00
2018-07-15T03:43:19.250Z,95.90
2018-07-15T03:47:22.490Z,95.90
2018-07-15T03:55:28.704Z,96.00
2018-07-15T03:59:31.933Z,95.90
2018-07-15T04:03:35.163Z,95.80
2018-07-15T04:07:38.380Z,95.80
2018-07-15T04:11:41.664Z,95.70
2018-07-15T04:15:44.915Z,95.60
2018-07-15T04:19:48.121Z,95.60
2018-07-15T04:23:51.332Z,95.40
2018-07-15T04:27:54.567Z,95.60
2018-07-15T04:31:57.900Z,95.70
2018-07-15T04:36:01.109Z,95.50
2018-07-15T04:40:04.340Z,95.30
2018-07-15T04:44:08.109Z,95.10
2018-07-15T04:48:11.324Z,94.90
2018-07-15T04:52:14.594Z,94.70
2018-07-15T04:56:17.826Z,94.40
2018-07-15T05:00:21.041Z,93.90
2018-07-15T05:04:24.261Z,93.30
2018-07-15T05:12:30.461Z,92.70
2018-07-15T05:16:33.684Z,92.30
2018-07-15T05:20:36.908Z,92.10
2018-07-15T05:24:40.237Z,91.80
2018-07-15T05:28:43.473Z,91.80
2018-07-15T05:32:46.708Z,90.90
2018-07-15T05:36:49.944Z,90.70
2018-07-15T05:40:53.163Z,90.00
2018-07-15T05:44:56.380Z,90.10
2018-07-15T05:48:59.622Z,89.20
2018-07-15T05:53:02.876Z,89.50
2018-07-15T05:57:06.124Z,88.60
2018-07-15T06:05:12.307Z,86.60
2018-07-15T06:09:15.545Z,85.50
2018-07-15T06:13:18.785Z,84.70
2018-07-15T06:17:22.025Z,84.40
2018-07-15T06:25:28.237Z,82.90
2018-07-15T06:33:34.443Z,82.70
2018-07-15T06:41:40.685Z,78.30
2018-07-15T06:45:43.933Z,78.80
2018-07-15T06:49:47.148Z,78.00
2018-07-15T06:53:50.391Z,76.70
2018-07-15T06:57:53.626Z,77.50
2018-07-15T07:01:56.873Z,78.10
2018-07-15T07:06:00.106Z,75.90
2018-07-15T07:10:03.375Z,76.30
2018-07-15T07:14:07.127Z,75.60
2018-07-15T07:18:10.348Z,74.80
2018-07-15T07:22:14.603Z,73.80
2018-07-15T07:26:17.938Z,73.80
2018-07-15T07:30:21.188Z,72.00
2018-07-15T07:34:24.459Z,71.10
2018-07-15T07:38:27.681Z,72.00
2018-07-15T07:42:30.920Z,69.40
2018-07-15T07:46:34.173Z,68.70
2018-07-15T07:50:37.445Z,68.10
2018-07-15T07:54:40.703Z,67.40
2018-07-15T07:58:43.929Z,66.40
2018-07-15T08:02:47.181Z,66.60
2018-07-15T08:06:50.430Z,65.00
2018-07-15T08:10:53.668Z,65.50
2018-07-15T08:14:56.894Z,64.20
2018-07-15T08:23:03.133Z,62.60
2018-07-15T08:27:06.512Z,60.80
2018-07-15T08:31:12.840Z,60.80
2018-07-15T08:35:16.085Z,59.50
2018-07-15T08:39:19.351Z,58.80
2018-07-15T08:43:22.615Z,59.60
2018-07-15T08:47:25.842Z,59.00
2018-07-15T08:51:29.121Z,57.90
2018-07-15T08:55:32.421Z,58.30
2018-07-15T08:59:35.662Z,58.60
2018-07-15T09:03:38.881Z,58.00
2018-07-15T09:07:42.122Z,56.90
2018-07-15T09:15:48.392Z,56.70
2018-07-15T09:19:51.612Z,53.60
2018-07-15T09:23:54.939Z,53.20
2018-07-15T09:27:58.363Z,54.40
2018-07-15T09:32:01.548Z,49.90
2018-07-15T09:36:05.641Z,46.90
2018-07-15T09:40:08.849Z,47.20
2018-07-15T09:44:12.077Z,44.90
2018-07-15T09:48:15.433Z,44.50
2018-07-15T09:52:18.657Z,43.50
2018-07-15T09:56:21.914Z,41.30
2018-07-15T10:00:30.620Z,39.80
2018-07-15T10:04:33.834Z,38.30
2018-07-15T10:08:37.060Z,39.60
2018-07-15T10:12:40.282Z,38.70
2018-07-15T10:16:43.533Z,38.50
2018-07-15T10:28:52.800Z,40.10
2018-07-15T10:32:56.057Z,41.70
2018-07-15T10:36:59.330Z,41.20
2018-07-15T10:41:02.682Z,39.90
2018-07-15T10:45:05.922Z,39.40
2018-07-15T10:49:09.141Z,40.40
2018-07-15T10:53:12.382Z,38.90
2018-07-15T10:57:15.616Z,35.00
2018-07-15T11:01:18.840Z,33.40
2018-07-15T11:05:22.092Z,32.40
2018-07-15T11:09:42.041Z,34.70
2018-07-15T11:13:51.066Z,33.90
2018-07-15T11:18:04.933Z,33.00
2018-07-15T11:22:08.208Z,32.50
2018-07-15T11:26:11.451Z,33.20
2018-07-15T11:30:14.690Z,30.80
2018-07-15T11:34:17.921Z,28.70
2018-07-15T11:38:21.148Z,30.00
2018-07-15T11:42:24.400Z,29.20
2018-07-15T11:54:33.865Z,28.50
2018-07-15T11:58:37.060Z,27.80
2018-07-15T12:02:40.279Z,27.80
2018-07-15T12:06:43.654Z,27.40
2018-07-15T12:10:46.939Z,28.70
2018-07-15T12:14:50.168Z,29.10
2018-07-15T12:18:53.437Z,28.10
2018-07-15T12:22:56.714Z,28.50
2018-07-15T12:27:00.029Z,29.50
2018-07-15T12:31:03.257Z,29.90
2018-07-15T12:35:06.485Z,28.20
2018-07-15T12:39:10.034Z,27.90
2018-07-15T12:43:13.273Z,28.30
2018-07-15T12:47:16.617Z,27.20
2018-07-15T12:51:19.849Z,28.10
2018-07-15T12:55:23.088Z,28.80
2018-07-15T12:59:26.329Z,29.70
2018-07-15T13:03:29.570Z,28.20
2018-07-15T13:07:32.804Z,27.30
2018-07-15T13:15:39.060Z,29.00
2018-07-15T13:19:42.379Z,28.10
2018-07-15T13:23:47.750Z,28.60
2018-07-15T13:27:51.022Z,27.50
2018-07-15T13:31:54.319Z,26.40
2018-07-15T13:35:57.681Z,27.50
2018-07-15T13:44:03.912Z,28.00
2018-07-15T13:48:07.178Z,28.60
2018-07-15T13:56:13.381Z,27.00
2018-07-15T14:04:19.724Z,27.90
2018-07-15T14:08:22.956Z,27.10
2018-07-15T14:12:26.197Z,27.00
2018-07-15T14:20:32.392Z,27.50
2018-07-15T14:28:38.581Z,26.40
2018-07-15T14:32:41.822Z,27.30
2018-07-15T14:36:45.038Z,27.40
2018-07-15T14:40:48.276Z,27.70
2018-07-15T14:44:51.518Z,26.90
2018-07-15T14:52:58.008Z,27.10
2018-07-15T14:57:01.238Z,26.60
2018-07-15T15:01:04.476Z,28.10
2018-07-15T15:05:07.904Z,28.50
2018-07-15T15:09:17.810Z,28.60
2018-07-15T15:13:21.092Z,28.40
2018-07-15T15:17:24.272Z,27.90
2018-07-15T15:21:27.509Z,29.10
2018-07-15T15:25:30.745Z,28.20
2018-07-15T15:29:33.964Z,27.90
2018-07-15T15:33:37.215Z,29.20
2018-07-15T15:37:40.439Z,28.80
2018-07-15T15:45:46.651Z,27.60
2018-07-15T15:49:49.902Z,28.90
2018-07-15T15:53:53.185Z,29.30
2018-07-15T15:57:56.408Z,28.70
2018-07-15T16:01:59.682Z,29.40
2018-07-15T16:06:02.931Z,28.20
2018-07-15T16:10:06.759Z,28.10
2018-07-15T16:14:10.000Z,29.30
2018-07-15T16:18:13.224Z,29.10
2018-07-15T16:22:16.515Z,28.80
2018-07-15T16:26:19.775Z,29.60
2018-07-15T16:30:23.010Z,30.30
2018-07-15T16:34:26.240Z,29.50
2018-07-15T16:38:29.461Z,29.30
2018-07-15T16:42:32.696Z,28.50
2018-07-15T16:46:35.932Z,28.80
2018-07-15T16:50:39.173Z,28.30
2018-07-15T16:54:42.400Z,28.30
2018-07-15T16:58:45.632Z,29.30
2018-07-15T17:02:48.856Z,28.40
2018-07-15T17:06:52.098Z,28.80
2018-07-15T17:10:55.332Z,29.30
2018-07-15T17:19:01.509Z,30.00
2018-07-15T17:23:04.804Z,29.20
2018-07-15T17:27:08.092Z,29.70
2018-07-15T17:31:11.336Z,29.30
2018-07-15T17:35:14.580Z,29.20
2018-07-15T17:39:17.871Z,29.60
2018-07-15T17:43:21.115Z,28.30
2018-07-15T17:47:24.349Z,28.30
2018-07-15T17:51:27.623Z,28.10
2018-07-15T17:55:30.869Z,28.70
2018-07-15T17:59:34.097Z,28.20
2018-07-15T18:03:37.333Z,27.80
2018-07-15T18:07:40.565Z,27.80
2018-07-15T18:11:43.828Z,27.60
2018-07-15T18:15:47.157Z,28.00
2018-07-15T18:19:50.384Z,27.70
2018-07-15T18:23:53.617Z,28.00
2018-07-15T18:32:01.200Z,29.10
2018-07-15T18:36:04.755Z,29.10
2018-07-15T18:40:08.033Z,29.00
2018-07-15T18:44:11.280Z,29.80
2018-07-15T18:48:14.508Z,29.90
2018-07-15T18:52:17.741Z,29.90
2018-07-15T18:56:20.989Z,30.20
2018-07-15T19:00:24.297Z,32.40
2018-07-15T19:04:27.521Z,33.20
2018-07-15T19:08:30.760Z,34.60
2018-07-15T19:12:34.006Z,35.10
2018-07-15T19:20:40.313Z,36.40
2018-07-15T19:28:46.653Z,38.30
2018-07-15T19:32:49.873Z,37.70
2018-07-15T19:36:53.108Z,38.00
2018-07-15T19:40:56.328Z,38.20
2018-07-15T19:44:59.540Z,39.00
2018-07-15T19:49:02.786Z,39.20
2018-07-15T19:53:06.025Z,39.90
2018-07-15T19:57:09.243Z,40.70
2018-07-15T20:01:12.487Z,41.40
2018-07-15T20:05:15.705Z,41.80
2018-07-15T20:09:18.942Z,41.60
2018-07-15T20:13:22.162Z,42.00
2018-07-15T20:17:25.917Z,42.20
2018-07-15T20:21:29.163Z,43.20
2018-07-15T20:25:32.864Z,43.10
2018-07-15T20:29:36.098Z,43.70
2018-07-15T20:41:46.169Z,44.40
2018-07-15T20:45:49.380Z,46.00
2018-07-15T20:49:52.596Z,45.90
2018-07-15T20:53:55.948Z,45.80
2018-07-15T20:57:59.222Z,46.70
2018-07-15T21:02:05.403Z,47.40
2018-07-15T21:06:08.785Z,47.90
2018-07-15T21:10:12.100Z,48.70
2018-07-15T21:14:16.195Z,48.80
2018-07-15T21:18:20.732Z,50.10
2018-07-15T21:22:24.234Z,49.50
2018-07-15T21:26:27.537Z,50.30
2018-07-15T21:30:32.927Z,50.90
2018-07-15T21:34:36.613Z,51.70
2018-07-15T21:38:40.594Z,52.50
2018-07-15T21:42:48.526Z,52.90
2018-07-15T21:50:56.552Z,51.80
2018-07-15T21:59:04.197Z,52.40
2018-07-15T22:03:07.460Z,51.70
2018-07-15T22:07:22.122Z,52.30
2018-07-15T22:11:25.354Z,52.70
2018-07-15T22:19:31.553Z,53.50
2018-07-15T22:23:34.803Z,53.70
2018-07-15T22:27:38.111Z,53.50
2018-07-15T22:31:41.335Z,53.40
2018-07-15T22:35:44.552Z,53.90
2018-07-15T22:39:47.771Z,54.60
2018-07-15T22:43:51.012Z,54.30
2018-07-15T22:47:54.248Z,53.10
2018-07-15T22:51:57.479Z,53.80
2018-07-15T22:56:00.697Z,54.10
2018-07-15T23:04:07.479Z,54.10
2018-07-15T23:08:10.993Z,53.60
2018-07-15T23:12:14.225Z,53.40
2018-07-15T23:20:20.400Z,54.20
2018-07-15T23:24:23.657Z,54.00
2018-07-15T23:28:26.873Z,54.10
2018-07-15T23:32:30.105Z,54.00
2018-07-15T23:36:33.329Z,53.80
2018-07-15T23:40:36.570Z,54.10
2018-07-15T23:44:39.785Z,55.90
2018-07-15T23:48:43.005Z,59.60
2018-07-15T23:52:46.220Z,62.40
2018-07-15T23:56:49.440Z,65.60
